Time;durP1;ratioP1;P1;durP2;ratioP2;P2;SDS_P1;SDS_P2;PMS_P1;PMS_P2;Temp;Humidity;BMP_temperature;BMP_pressure;BME280_temperature;BME280_humidity;BME280_pressure;Samples;Min_cycle;Max_cycle;Signal;HPM_P1;HPM_P2
2021/04/17 00:02:16;;;;;;;6.00;3.10;;;;;;;;;;4953106;29;20074;-82
2021/04/17 00:04:42;;;;;;;5.93;2.90;;;;;;;;;;4952840;29;20055;-81
2021/04/17 00:07:09;;;;;;;4.95;2.35;;;;;;;;;;4968956;28;20043;-82
2021/04/17 00:09:35;;;;;;;7.15;2.80;;;;;;;;;;4952921;29;20122;-82
2021/04/17 00:12:06;;;;;;;7.35;3.25;;;;;;;;;;4952973;29;20078;-82
2021/04/17 00:14:33;;;;;;;7.10;3.28;;;;;;;;;;4953966;29;20067;-82
2021/04/17 00:16:59;;;;;;;8.02;3.08;;;;;;;;;;4968904;28;20035;-81
2021/04/17 00:19:25;;;;;;;6.15;3.05;;;;;;;;;;4969116;28;20039;-82
2021/04/17 00:21:51;;;;;;;6.03;2.80;;;;;;;;;;4953976;29;20035;-82
2021/04/17 00:24:17;;;;;;;5.72;2.90;;;;;;;;;;4952798;29;20061;-81
2021/04/17 00:26:43;;;;;;;7.28;3.33;;;;;;;;;;4968730;28;20039;-82
2021/04/17 00:29:09;;;;;;;6.50;2.88;;;;;;;;;;4952427;29;20051;-82
2021/04/17 00:31:35;;;;;;;10.43;2.92;;;;;;;;;;4968675;28;20070;-82
2021/04/17 00:34:02;;;;;;;6.80;2.90;;;;;;;;;;4968734;28;20042;-82
2021/04/17 00:36:32;;;;;;;4.25;2.70;;;;;;;;;;4968139;28;20035;-82
2021/04/17 00:38:58;;;;;;;5.47;2.53;;;;;;;;;;4968851;28;20062;-82
2021/04/17 00:41:24;;;;;;;8.32;2.88;;;;;;;;;;4953739;29;20050;-82
2021/04/17 00:43:50;;;;;;;6.55;3.15;;;;;;;;;;4968473;28;20038;-82
2021/04/17 00:46:16;;;;;;;6.95;3.08;;;;;;;;;;4968457;28;20043;-82
2021/04/17 00:48:43;;;;;;;6.25;3.10;;;;;;;;;;4968603;28;20122;-82
2021/04/17 00:51:09;;;;;;;6.60;2.75;;;;;;;;;;4952547;29;20057;-82
2021/04/17 00:53:35;;;;;;;5.32;3.58;;;;;;;;;;4952374;29;20470;-81
2021/04/17 00:56:05;;;;;;;7.93;3.17;;;;;;;;;;4968667;28;20084;-81
2021/04/17 00:58:31;;;;;;;7.85;3.25;;;;;;;;;;4953812;29;20122;-83
2021/04/17 01:00:57;;;;;;;6.90;3.10;;;;;;;;;;4953807;29;20122;-82
2021/04/17 01:03:31;;;;;;;8.75;3.22;;;;;;;;;;4968836;28;20047;-83
2021/04/17 01:05:58;;;;;;;6.93;3.10;;;;;;;;;;4957473;29;20097;-82
2021/04/17 01:08:28;;;;;;;6.47;3.10;;;;;;;;;;4955856;29;20126;-83
2021/04/17 01:10:55;;;;;;;6.93;3.08;;;;;;;;;;4956053;29;20045;-80
2021/04/17 01:13:22;;;;;;;5.05;3.08;;;;;;;;;;4971884;28;20505;-82
2021/04/17 01:15:48;;;;;;;7.53;2.83;;;;;;;;;;4971871;28;20043;-82
2021/04/17 01:18:14;;;;;;;10.30;3.17;;;;;;;;;;4971943;28;20114;-80
2021/04/17 01:20:47;;;;;;;7.45;2.92;;;;;;;;;;4957129;29;20051;-81
2021/04/17 01:23:14;;;;;;;6.70;3.33;;;;;;;;;;4971973;28;20047;-81
2021/04/17 01:25:42;;;;;;;5.82;2.88;;;;;;;;;;4955804;29;20052;-81
2021/04/17 01:28:08;;;;;;;8.63;3.53;;;;;;;;;;4955647;29;20118;-82
2021/04/17 01:30:34;;;;;;;8.60;3.55;;;;;;;;;;4921047;29;20062;-82
2021/04/17 01:33:00;;;;;;;6.63;3.17;;;;;;;;;;4920980;29;20044;-81
2021/04/17 01:35:26;;;;;;;10.20;3.85;;;;;;;;;;4905088;29;20127;-82
2021/04/17 01:37:52;;;;;;;7.85;3.42;;;;;;;;;;4904901;29;20555;-82
2021/04/17 01:40:22;;;;;;;6.30;3.47;;;;;;;;;;4920603;29;20066;-82
2021/04/17 01:42:49;;;;;;;8.65;3.08;;;;;;;;;;4920480;29;20043;-82
2021/04/17 01:45:16;;;;;;;10.43;4.22;;;;;;;;;;4937525;29;20055;-82
2021/04/17 01:47:42;;;;;;;9.23;3.33;;;;;;;;;;4920575;29;20475;-82
2021/04/17 01:50:09;;;;;;;12.65;3.70;;;;;;;;;;4904984;29;20043;-82
2021/04/17 01:52:35;;;;;;;8.95;3.10;;;;;;;;;;4920270;29;20550;-81
2021/04/17 01:55:01;;;;;;;9.45;3.25;;;;;;;;;;4920542;29;20419;-82
2021/04/17 01:57:27;;;;;;;6.50;3.33;;;;;;;;;;4920272;29;20506;-82
2021/04/17 01:59:53;;;;;;;7.28;3.30;;;;;;;;;;4937280;29;20489;-82
2021/04/17 02:02:19;;;;;;;9.73;3.45;;;;;;;;;;4920217;29;20547;-82
2021/04/17 02:04:45;;;;;;;8.45;3.28;;;;;;;;;;4920121;29;20048;-83
2021/04/17 02:07:11;;;;;;;6.40;3.17;;;;;;;;;;4920069;29;20090;-82
2021/04/17 02:09:37;;;;;;;5.70;3.00;;;;;;;;;;4920045;29;20086;-82
2021/04/17 02:12:04;;;;;;;7.43;2.85;;;;;;;;;;4920133;29;20079;-82
2021/04/17 02:14:30;;;;;;;8.27;2.88;;;;;;;;;;4919788;29;20047;-82
2021/04/17 02:17:15;;;;;;;6.22;3.13;;;;;;;;;;4919239;29;20067;-82
2021/04/17 02:19:46;;;;;;;6.80;2.55;;;;;;;;;;4919842;29;20044;-82
2021/04/17 02:22:12;;;;;;;6.65;2.83;;;;;;;;;;4919937;29;20043;-81
2021/04/17 02:24:39;;;;;;;10.20;2.80;;;;;;;;;;4919900;29;20036;-81
2021/04/17 02:27:05;;;;;;;5.80;2.47;;;;;;;;;;4936741;29;20040;-82
2021/04/17 02:29:32;;;;;;;5.72;2.78;;;;;;;;;;4919877;29;20103;-82
2021/04/17 02:31:58;;;;;;;13.07;3.17;;;;;;;;;;4919636;29;20490;-82
2021/04/17 02:34:24;;;;;;;10.80;3.33;;;;;;;;;;4936543;29;20050;-82
2021/04/17 02:36:50;;;;;;;7.05;2.50;;;;;;;;;;4919592;29;20075;-82
2021/04/17 02:39:16;;;;;;;5.05;2.40;;;;;;;;;;4919667;29;20115;-81
2021/04/17 02:41:42;;;;;;;7.03;2.30;;;;;;;;;;4903965;29;20051;-81
2021/04/17 02:44:09;;;;;;;5.75;2.60;;;;;;;;;;4919529;29;20039;-82
2021/04/17 02:46:35;;;;;;;5.32;1.98;;;;;;;;;;4919422;29;20046;-82
2021/04/17 02:49:01;;;;;;;5.35;2.38;;;;;;;;;;4903869;29;20047;-82
2021/04/17 02:51:27;;;;;;;4.70;2.55;;;;;;;;;;4919346;29;20094;-82
2021/04/17 02:53:53;;;;;;;7.03;2.40;;;;;;;;;;4936216;29;20051;-82
2021/04/17 02:56:19;;;;;;;8.35;2.53;;;;;;;;;;4936076;29;20035;-82
2021/04/17 02:58:45;;;;;;;5.45;2.17;;;;;;;;;;4903652;29;20035;-82
2021/04/17 03:01:11;;;;;;;7.82;2.75;;;;;;;;;;4903347;29;20039;-82
2021/04/17 03:03:37;;;;;;;5.43;2.28;;;;;;;;;;4919287;29;20130;-82
2021/04/17 03:06:03;;;;;;;8.13;2.40;;;;;;;;;;4919197;29;20114;-82
2021/04/17 03:08:29;;;;;;;3.85;2.33;;;;;;;;;;4918934;29;20063;-81
2021/04/17 03:10:55;;;;;;;5.30;2.60;;;;;;;;;;4919017;29;20253;-82
2021/04/17 03:13:21;;;;;;;4.53;2.25;;;;;;;;;;4935799;29;20071;-81
2021/04/17 03:15:47;;;;;;;8.02;2.67;;;;;;;;;;4935651;29;20090;-81
2021/04/17 03:18:13;;;;;;;6.88;2.30;;;;;;;;;;4918988;29;20432;-83
2021/04/17 03:20:40;;;;;;;6.47;2.38;;;;;;;;;;4903068;29;20051;-83
2021/04/17 03:23:06;;;;;;;7.45;2.80;;;;;;;;;;4919103;29;20046;-82
2021/04/17 03:25:32;;;;;;;5.00;2.50;;;;;;;;;;4903038;29;20054;-82
2021/04/17 03:27:58;;;;;;;5.75;2.75;;;;;;;;;;4935209;29;20047;-82
2021/04/17 03:30:28;;;;;;;5.85;2.88;;;;;;;;;;4918461;29;20123;-82
2021/04/17 03:32:57;;;;;;;6.88;2.90;;;;;;;;;;4919163;29;20043;-81
2021/04/17 03:35:23;;;;;;;6.50;2.72;;;;;;;;;;4902904;29;20042;-82
2021/04/17 03:37:49;;;;;;;4.90;2.78;;;;;;;;;;4935371;29;20040;-82
2021/04/17 03:40:16;;;;;;;7.35;3.15;;;;;;;;;;4935413;29;20046;-81
2021/04/17 03:42:42;;;;;;;6.70;3.00;;;;;;;;;;4902716;29;20075;-82
2021/04/17 03:45:10;;;;;;;6.63;2.90;;;;;;;;;;4887141;29;20064;-84
2021/04/17 03:47:36;;;;;;;7.80;4.50;;;;;;;;;;4918635;29;20043;-82
2021/04/17 03:50:02;;;;;;;7.70;3.00;;;;;;;;;;4935281;29;20039;-82
2021/04/17 03:52:29;;;;;;;7.90;3.58;;;;;;;;;;4935160;29;20460;-82
2021/04/17 03:54:55;;;;;;;6.85;3.28;;;;;;;;;;4918195;29;20119;-82
2021/04/17 03:57:21;;;;;;;10.20;3.33;;;;;;;;;;4934952;29;20036;-82
2021/04/17 03:59:47;;;;;;;6.82;3.53;;;;;;;;;;4918267;29;20395;-82
2021/04/17 04:02:13;;;;;;;5.50;3.75;;;;;;;;;;4918485;29;20052;-82
2021/04/17 04:04:39;;;;;;;6.15;3.47;;;;;;;;;;4935135;29;20044;-82
2021/04/17 04:07:05;;;;;;;8.15;3.58;;;;;;;;;;4918433;29;20036;-82
2021/04/17 04:09:31;;;;;;;6.90;4.13;;;;;;;;;;4918214;29;20514;-82
2021/04/17 04:11:58;;;;;;;6.25;3.35;;;;;;;;;;4934835;29;20046;-82
2021/04/17 04:14:24;;;;;;;5.55;3.35;;;;;;;;;;4934987;29;20051;-82
2021/04/17 04:16:50;;;;;;;4.95;3.00;;;;;;;;;;4918006;29;20046;-82
2021/04/17 04:19:16;;;;;;;7.13;3.55;;;;;;;;;;4918038;29;20039;-82
2021/04/17 04:21:42;;;;;;;6.65;3.90;;;;;;;;;;4918124;29;20067;-82
2021/04/17 04:24:08;;;;;;;8.68;3.30;;;;;;;;;;4935060;29;20543;-82
2021/04/17 04:26:34;;;;;;;6.25;3.38;;;;;;;;;;4902087;29;20126;-82
2021/04/17 04:29:00;;;;;;;4.93;3.33;;;;;;;;;;4902098;29;20083;-82
2021/04/17 04:31:27;;;;;;;9.55;3.47;;;;;;;;;;4902043;29;20118;-82
2021/04/17 04:33:52;;;;;;;6.25;3.13;;;;;;;;;;4918014;29;20048;-82
2021/04/17 04:36:19;;;;;;;4.55;3.13;;;;;;;;;;4917881;29;20489;-82
2021/04/17 04:38:45;;;;;;;6.88;3.33;;;;;;;;;;4918838;29;20551;-82
2021/04/17 04:41:11;;;;;;;7.65;3.55;;;;;;;;;;4905822;29;20139;-82
2021/04/17 04:43:37;;;;;;;6.72;3.65;;;;;;;;;;4921651;29;20147;-82
2021/04/17 04:46:03;;;;;;;6.10;3.38;;;;;;;;;;4921624;29;20043;-82
2021/04/17 04:48:30;;;;;;;10.35;4.13;;;;;;;;;;4938581;29;20043;-82
2021/04/17 04:50:56;;;;;;;6.20;3.42;;;;;;;;;;4921607;29;20039;-82
2021/04/17 04:53:22;;;;;;;7.60;3.42;;;;;;;;;;4905716;29;20099;-82
2021/04/17 04:55:48;;;;;;;7.90;3.40;;;;;;;;;;4921557;29;20039;-81
2021/04/17 04:58:14;;;;;;;13.07;3.90;;;;;;;;;;4921400;29;20048;-82
2021/04/17 05:00:40;;;;;;;6.50;3.03;;;;;;;;;;4905643;29;20131;-82
2021/04/17 05:03:06;;;;;;;8.77;3.20;;;;;;;;;;4905741;29;20468;-82
2021/04/17 05:05:32;;;;;;;5.85;3.47;;;;;;;;;;4938263;29;20071;-81
2021/04/17 05:07:58;;;;;;;8.60;3.78;;;;;;;;;;4921334;29;20078;-82
2021/04/17 05:10:25;;;;;;;6.40;3.72;;;;;;;;;;4921160;29;20059;-81
2021/04/17 05:12:51;;;;;;;10.00;3.80;;;;;;;;;;4920984;29;20247;-81
2021/04/17 05:15:17;;;;;;;5.05;3.08;;;;;;;;;;4921223;29;20070;-81
2021/04/17 05:17:43;;;;;;;7.28;2.88;;;;;;;;;;4905462;29;20039;-81
2021/04/17 05:20:09;;;;;;;8.38;3.25;;;;;;;;;;4921301;29;20080;-82
2021/04/17 05:22:36;;;;;;;8.93;3.42;;;;;;;;;;4921064;29;20043;-82
2021/04/17 05:25:02;;;;;;;6.25;3.33;;;;;;;;;;4937784;29;20047;-82
2021/04/17 05:27:28;;;;;;;8.38;3.25;;;;;;;;;;4905232;29;20139;-82
2021/04/17 05:29:54;;;;;;;8.43;3.65;;;;;;;;;;4920787;29;20084;-82
2021/04/17 05:32:20;;;;;;;7.95;3.33;;;;;;;;;;4937701;29;20123;-84
2021/04/17 05:34:46;;;;;;;7.47;3.15;;;;;;;;;;4920900;29;20080;-82
2021/04/17 05:37:12;;;;;;;22.25;4.95;;;;;;;;;;4920795;29;20043;-82
2021/04/17 05:39:38;;;;;;;6.20;2.67;;;;;;;;;;4937585;29;20479;-83
2021/04/17 05:42:04;;;;;;;6.63;3.00;;;;;;;;;;4920714;29;20175;-83
2021/04/17 05:44:30;;;;;;;4.35;2.65;;;;;;;;;;4904918;29;20043;-81
2021/04/17 05:46:57;;;;;;;10.43;3.40;;;;;;;;;;4937427;29;20104;-81
2021/04/17 05:49:23;;;;;;;6.18;2.75;;;;;;;;;;4937126;29;20055;-81
2021/04/17 05:51:49;;;;;;;4.47;2.90;;;;;;;;;;4920554;29;20444;-81
2021/04/17 05:54:17;;;;;;;8.50;2.83;;;;;;;;;;4920215;29;20158;-81
2021/04/17 05:56:43;;;;;;;9.82;3.13;;;;;;;;;;4904679;29;20067;-81
2021/04/17 05:59:09;;;;;;;8.23;2.00;;;;;;;;;;4937382;29;20044;-82
2021/04/17 06:01:35;;;;;;;13.32;2.67;;;;;;;;;;4920333;29;20036;-83
2021/04/17 06:04:01;;;;;;;13.07;3.53;;;;;;;;;;4920365;29;20040;-83
2021/04/17 06:06:27;;;;;;;11.02;2.45;;;;;;;;;;4920065;29;20106;-83
2021/04/17 06:08:53;;;;;;;14.75;2.80;;;;;;;;;;4904467;29;20071;-83
2021/04/17 06:11:19;;;;;;;11.63;2.80;;;;;;;;;;4920231;29;20427;-83
2021/04/17 06:13:45;;;;;;;12.57;3.03;;;;;;;;;;4920148;29;20040;-84
2021/04/17 06:16:11;;;;;;;11.38;2.85;;;;;;;;;;4920260;29;20043;-83
2021/04/17 06:18:37;;;;;;;13.48;3.10;;;;;;;;;;4920015;29;20035;-84
2021/04/17 06:21:04;;;;;;;11.43;3.15;;;;;;;;;;4904296;29;20503;-84
2021/04/17 06:23:30;;;;;;;12.98;2.95;;;;;;;;;;4919954;29;20051;-83
2021/04/17 06:25:56;;;;;;;12.82;2.90;;;;;;;;;;4919674;29;20063;-84
2021/04/17 06:28:22;;;;;;;14.80;3.20;;;;;;;;;;4938063;29;20114;-84
2021/04/17 06:30:48;;;;;;;12.23;3.15;;;;;;;;;;4938916;29;20047;-85
2021/04/17 06:33:14;;;;;;;13.40;4.57;;;;;;;;;;4938756;29;20035;-86
2021/04/17 06:35:40;;;;;;;17.67;2.95;;;;;;;;;;4954709;29;20043;-84
2021/04/17 06:38:08;;;;;;;9.27;2.97;;;;;;;;;;4954434;29;20067;-89
2021/04/17 06:40:34;;;;;;;13.80;3.28;;;;;;;;;;4938523;29;20110;-85
2021/04/17 06:43:00;;;;;;;12.57;3.20;;;;;;;;;;4938525;29;20043;-85
2021/04/17 06:45:26;;;;;;;13.30;3.67;;;;;;;;;;4938420;29;20043;-89
2021/04/17 06:47:54;;;;;;;11.13;3.15;;;;;;;;;;4938485;29;20195;-88
2021/04/17 06:50:21;;;;;;;13.95;2.80;;;;;;;;;;4954209;29;20043;-86
2021/04/17 06:52:47;;;;;;;10.70;3.10;;;;;;;;;;4938358;29;20484;-84
2021/04/17 06:55:13;;;;;;;11.70;3.60;;;;;;;;;;4938524;29;20491;-84
2021/04/17 06:57:40;;;;;;;9.02;3.50;;;;;;;;;;4954232;28;20049;-83
2021/04/17 07:00:07;;;;;;;15.63;3.15;;;;;;;;;;4954241;29;20070;-84
2021/04/17 07:02:33;;;;;;;9.80;3.47;;;;;;;;;;4937540;29;20043;-83
2021/04/17 07:04:59;;;;;;;14.55;3.70;;;;;;;;;;4954008;29;20039;-84
2021/04/17 07:07:25;;;;;;;12.80;3.75;;;;;;;;;;4938273;29;20140;-84
2021/04/17 07:09:52;;;;;;;13.43;3.53;;;;;;;;;;4953942;29;20039;-84
2021/04/17 07:12:18;;;;;;;13.90;3.30;;;;;;;;;;4953870;29;20106;-88
2021/04/17 07:14:46;;;;;;;15.80;3.67;;;;;;;;;;4954222;29;20074;-89
2021/04/17 07:17:13;;;;;;;12.93;3.70;;;;;;;;;;4938478;29;20122;-93
2021/04/17 07:19:50;;;;;;;13.27;4.05;;;;;;;;;;4938757;29;20420;-91
2021/04/17 07:22:23;;;;;;;10.57;3.85;;;;;;;;;;4938400;29;20047;-90
2021/04/17 07:24:53;;;;;;;13.45;3.10;;;;;;;;;;4954182;29;20047;-89
2021/04/17 07:27:31;;;;;;;10.13;3.33;;;;;;;;;;4953688;29;20043;-89
2021/04/17 07:29:58;;;;;;;15.27;3.40;;;;;;;;;;4949684;29;20368;-89
2021/04/17 07:32:24;;;;;;;10.07;3.47;;;;;;;;;;4953607;29;20043;-88
2021/04/17 07:35:11;;;;;;;10.98;3.17;;;;;;;;;;4969735;28;20039;-93
2021/04/17 07:37:38;;;;;;;14.88;3.72;;;;;;;;;;4938483;29;20077;-88
2021/04/17 07:40:16;;;;;;;13.75;3.50;;;;;;;;;;4969611;28;20046;-88
2021/04/17 07:42:43;;;;;;;11.18;3.28;;;;;;;;;;4953545;29;20498;-88
2021/04/17 07:45:28;;;;;;;12.95;3.95;;;;;;;;;;4953810;29;20047;-88
2021/04/17 07:47:59;;;;;;;10.65;3.50;;;;;;;;;;4953860;29;20047;-85
2021/04/17 07:50:33;;;;;;;12.10;3.50;;;;;;;;;;4969057;28;20509;-86
2021/04/17 07:52:59;;;;;;;13.55;3.38;;;;;;;;;;4954461;29;20035;-84
2021/04/17 07:55:30;;;;;;;13.73;3.58;;;;;;;;;;4954470;28;20050;-84
2021/04/17 07:57:56;;;;;;;13.65;3.13;;;;;;;;;;4937404;29;20054;-83
2021/04/17 08:00:23;;;;;;;10.18;3.58;;;;;;;;;;4954295;29;20043;-84
2021/04/17 08:02:51;;;;;;;11.43;2.78;;;;;;;;;;4953064;29;20043;-85
2021/04/17 08:05:17;;;;;;;12.35;3.35;;;;;;;;;;4953157;29;20047;-84
2021/04/17 08:07:43;;;;;;;10.82;3.10;;;;;;;;;;4953160;29;20040;-84
2021/04/17 08:10:10;;;;;;;13.38;3.20;;;;;;;;;;4969020;28;20479;-87
2021/04/17 08:12:36;;;;;;;9.60;3.45;;;;;;;;;;4954052;28;20039;-86
2021/04/17 08:15:04;;;;;;;9.07;3.08;;;;;;;;;;4952931;29;20043;-86
2021/04/17 08:17:30;;;;;;;11.32;3.45;;;;;;;;;;4968823;28;20086;-82
2021/04/17 08:19:57;;;;;;;13.25;3.30;;;;;;;;;;4952848;29;20039;-84
2021/04/17 08:22:23;;;;;;;9.18;3.00;;;;;;;;;;4954091;28;20122;-83
2021/04/17 08:24:49;;;;;;;10.90;3.30;;;;;;;;;;4968850;28;20036;-84
2021/04/17 08:27:15;;;;;;;9.55;3.10;;;;;;;;;;4969067;28;20135;-83
2021/04/17 08:29:42;;;;;;;9.63;3.15;;;;;;;;;;4968713;28;20467;-83
2021/04/17 08:32:21;;;;;;;9.32;2.97;;;;;;;;;;4953935;29;20480;-82
2021/04/17 08:35:20;;;;;;;8.85;3.13;;;;;;;;;;4953043;29;20503;-82
2021/04/17 08:37:52;;;;;;;7.80;2.95;;;;;;;;;;4942412;28;20406;-82
2021/04/17 08:40:41;;;;;;;8.48;3.08;;;;;;;;;;4954066;28;20122;-82
2021/04/17 08:43:10;;;;;;;9.38;3.13;;;;;;;;;;4951064;28;20569;-82
2021/04/17 08:45:36;;;;;;;9.88;2.67;;;;;;;;;;4953864;29;20143;-82
2021/04/17 08:48:03;;;;;;;9.05;2.90;;;;;;;;;;4953758;29;20043;-84
2021/04/17 08:50:33;;;;;;;8.27;2.80;;;;;;;;;;4968641;28;20055;-84
2021/04/17 08:53:03;;;;;;;8.00;2.70;;;;;;;;;;4968519;28;20049;-84
2021/04/17 08:55:30;;;;;;;13.27;3.08;;;;;;;;;;4968370;28;20047;-84
2021/04/17 08:58:12;;;;;;;7.63;2.75;;;;;;;;;;4968588;28;20416;-84
2021/04/17 09:00:39;;;;;;;7.32;3.00;;;;;;;;;;4953772;29;20114;-84
2021/04/17 09:03:05;;;;;;;8.07;2.55;;;;;;;;;;4968577;28;20130;-84
2021/04/17 09:05:44;;;;;;;6.40;2.50;;;;;;;;;;4953711;29;20479;-83
2021/04/17 09:08:12;;;;;;;7.20;2.90;;;;;;;;;;4953564;29;20366;-83
2021/04/17 09:10:38;;;;;;;7.13;2.40;;;;;;;;;;4968452;28;20538;-83
2021/04/17 09:13:11;;;;;;;7.60;2.75;;;;;;;;;;4952462;29;20098;-84
2021/04/17 09:15:57;;;;;;;7.15;2.53;;;;;;;;;;4953651;28;20066;-84
2021/04/17 09:18:33;;;;;;;8.80;2.95;;;;;;;;;;4953436;28;20041;-83
2021/04/17 09:21:04;;;;;;;8.25;2.92;;;;;;;;;;4953688;29;20035;-84
2021/04/17 09:23:36;;;;;;;9.77;3.17;;;;;;;;;;4952400;29;20118;-83
2021/04/17 09:26:02;;;;;;;6.25;3.15;;;;;;;;;;4971046;28;20442;-84
2021/04/17 09:28:35;;;;;;;7.57;2.70;;;;;;;;;;4971696;28;20046;-84
2021/04/17 09:31:01;;;;;;;7.75;2.63;;;;;;;;;;4955805;29;20084;-83
2021/04/17 09:33:27;;;;;;;6.57;2.55;;;;;;;;;;4955694;29;20035;-84
2021/04/17 09:35:53;;;;;;;8.75;2.80;;;;;;;;;;4955697;29;20130;-84
2021/04/17 09:38:19;;;;;;;9.32;2.90;;;;;;;;;;4956977;29;20554;-84
2021/04/17 09:40:52;;;;;;;7.70;2.72;;;;;;;;;;4957242;29;20459;-84
2021/04/17 09:43:35;;;;;;;5.43;2.58;;;;;;;;;;4939698;29;20043;-84
2021/04/17 09:46:05;;;;;;;5.10;2.17;;;;;;;;;;4939501;29;20137;-84
2021/04/17 09:48:43;;;;;;;8.45;3.03;;;;;;;;;;4955718;29;20048;-84
2021/04/17 09:51:23;;;;;;;8.85;2.55;;;;;;;;;;4955489;29;20047;-85
2021/04/17 09:53:50;;;;;;;9.75;2.60;;;;;;;;;;4955346;29;20431;-85
2021/04/17 09:56:29;;;;;;;6.28;2.75;;;;;;;;;;4967256;28;20034;-84
2021/04/17 09:58:56;;;;;;;8.15;2.42;;;;;;;;;;4958574;28;20500;-84
2021/04/17 10:01:22;;;;;;;5.93;2.63;;;;;;;;;;4958739;28;20126;-84
2021/04/17 10:03:57;;;;;;;5.43;2.20;;;;;;;;;;4959655;28;20089;-83
2021/04/17 10:06:23;;;;;;;5.05;2.20;;;;;;;;;;4967695;28;20467;-83
2021/04/17 10:08:50;;;;;;;5.35;2.47;;;;;;;;;;4973569;28;20049;-84
2021/04/17 10:11:39;;;;;;;4.97;2.20;;;;;;;;;;4957266;28;20494;-82
2021/04/17 10:14:05;;;;;;;4.30;1.98;;;;;;;;;;4950313;28;20097;-83
2021/04/17 10:16:32;;;;;;;3.40;1.60;;;;;;;;;;4957864;28;20073;-85
2021/04/17 10:18:58;;;;;;;5.80;2.00;;;;;;;;;;4942124;28;20134;-82
2021/04/17 10:21:25;;;;;;;6.18;2.40;;;;;;;;;;4942145;28;20117;-84
2021/04/17 10:24:10;;;;;;;5.03;2.28;;;;;;;;;;4941912;28;20059;-86
2021/04/17 10:26:47;;;;;;;4.43;2.10;;;;;;;;;;4975092;28;20034;-85
2021/04/17 10:29:13;;;;;;;4.35;2.50;;;;;;;;;;4962619;28;20470;-85
2021/04/17 10:31:39;;;;;;;3.70;1.85;;;;;;;;;;4975108;28;20483;-85
2021/04/17 10:34:05;;;;;;;5.63;2.35;;;;;;;;;;4974972;28;20491;-86
2021/04/17 10:36:31;;;;;;;6.93;2.22;;;;;;;;;;4956471;28;20122;-85
2021/04/17 10:39:04;;;;;;;5.38;2.13;;;;;;;;;;4973486;28;20099;-84
2021/04/17 10:41:31;;;;;;;3.70;2.17;;;;;;;;;;4974899;28;20039;-88
2021/04/17 10:44:07;;;;;;;6.18;2.30;;;;;;;;;;4957550;28;20043;-82
2021/04/17 10:46:39;;;;;;;6.57;2.20;;;;;;;;;;4974694;28;20108;-82
2021/04/17 10:49:05;;;;;;;4.72;1.85;;;;;;;;;;4974845;28;20058;-81
2021/04/17 10:51:35;;;;;;;4.28;2.00;;;;;;;;;;4974728;28;20047;-83
2021/04/17 10:54:01;;;;;;;6.80;2.28;;;;;;;;;;4974603;28;20042;-83
2021/04/17 10:56:28;;;;;;;6.05;2.30;;;;;;;;;;4968092;28;20105;-82
2021/04/17 10:59:01;;;;;;;4.78;2.25;;;;;;;;;;4974285;28;20043;-82
2021/04/17 11:01:28;;;;;;;4.93;1.90;;;;;;;;;;4941077;28;20043;-82
2021/04/17 11:03:54;;;;;;;5.13;2.08;;;;;;;;;;4974432;28;20422;-84
2021/04/17 11:06:23;;;;;;;5.38;2.30;;;;;;;;;;4972959;28;20045;-83
2021/04/17 11:08:50;;;;;;;3.72;1.92;;;;;;;;;;4971223;28;20047;-83
2021/04/17 11:11:17;;;;;;;3.65;2.15;;;;;;;;;;4955189;28;20046;-83
2021/04/17 11:13:46;;;;;;;2.95;1.85;;;;;;;;;;4957066;28;20097;-82
2021/04/17 11:16:13;;;;;;;6.45;2.03;;;;;;;;;;4972822;28;20039;-82
2021/04/17 11:18:40;;;;;;;5.07;1.83;;;;;;;;;;4956824;28;20034;-82
2021/04/17 11:21:12;;;;;;;6.28;2.53;;;;;;;;;;4957162;28;20138;-84
2021/04/17 11:23:40;;;;;;;4.85;2.10;;;;;;;;;;4973709;28;20050;-83
2021/04/17 11:26:07;;;;;;;8.27;2.13;;;;;;;;;;4971366;28;20050;-83
2021/04/17 11:28:33;;;;;;;4.53;1.95;;;;;;;;;;4956256;28;20039;-84
2021/04/17 11:30:59;;;;;;;2.67;1.70;;;;;;;;;;4956972;28;20479;-83
2021/04/17 11:33:25;;;;;;;4.07;2.40;;;;;;;;;;4956732;28;20058;-83
2021/04/17 11:35:52;;;;;;;5.28;1.85;;;;;;;;;;4940702;28;20448;-84
2021/04/17 11:38:18;;;;;;;5.45;2.10;;;;;;;;;;4956719;28;20512;-83
2021/04/17 11:40:44;;;;;;;5.43;2.13;;;;;;;;;;4956517;28;20494;-86
2021/04/17 11:43:10;;;;;;;5.75;2.35;;;;;;;;;;4956023;28;20430;-82
2021/04/17 11:45:36;;;;;;;3.25;2.22;;;;;;;;;;4956159;28;20049;-83
2021/04/17 11:48:03;;;;;;;4.30;1.83;;;;;;;;;;4956286;28;20072;-82
2021/04/17 11:50:29;;;;;;;4.68;2.10;;;;;;;;;;4956530;28;20238;-81
2021/04/17 11:52:56;;;;;;;4.43;2.03;;;;;;;;;;4956308;28;20486;-82
2021/04/17 11:55:23;;;;;;;3.78;2.15;;;;;;;;;;4974062;28;20034;-88
2021/04/17 11:57:49;;;;;;;6.53;1.88;;;;;;;;;;4940590;28;20046;-82
2021/04/17 12:00:15;;;;;;;6.35;2.05;;;;;;;;;;4973548;28;20375;-81
2021/04/17 12:02:41;;;;;;;10.10;2.70;;;;;;;;;;4973501;28;20122;-82
2021/04/17 12:05:08;;;;;;;4.95;2.00;;;;;;;;;;4956300;28;20081;-82
2021/04/17 12:07:34;;;;;;;3.55;1.92;;;;;;;;;;4956234;28;20035;-82
2021/04/17 12:10:00;;;;;;;4.13;1.73;;;;;;;;;;4956190;28;20414;-82
2021/04/17 12:12:26;;;;;;;4.43;2.20;;;;;;;;;;4973368;28;20078;-82
2021/04/17 12:14:52;;;;;;;5.57;2.28;;;;;;;;;;4956408;28;20043;-83
2021/04/17 12:17:18;;;;;;;4.95;2.40;;;;;;;;;;4973243;28;20046;-83
2021/04/17 12:19:44;;;;;;;4.45;1.98;;;;;;;;;;4955924;28;20035;-83
2021/04/17 12:22:10;;;;;;;21.75;3.65;;;;;;;;;;4956042;28;20065;-83
2021/04/17 12:24:36;;;;;;;4.07;1.80;;;;;;;;;;4956091;28;20042;-83
2021/04/17 12:27:02;;;;;;;6.38;2.20;;;;;;;;;;4956056;28;20043;-83
2021/04/17 12:29:28;;;;;;;5.25;2.10;;;;;;;;;;4947017;28;20109;-82
2021/04/17 12:31:54;;;;;;;5.97;1.88;;;;;;;;;;4972082;28;20042;-83
2021/04/17 12:34:20;;;;;;;3.55;1.73;;;;;;;;;;4972040;28;20558;-83
2021/04/17 12:36:46;;;;;;;5.13;1.80;;;;;;;;;;4971992;28;20049;-85
2021/04/17 12:39:12;;;;;;;2.42;1.77;;;;;;;;;;4956090;28;20114;-87
2021/04/17 12:41:38;;;;;;;4.97;1.67;;;;;;;;;;4972110;28;20393;-85
2021/04/17 12:44:04;;;;;;;4.72;1.38;;;;;;;;;;4956078;28;20130;-84
2021/04/17 12:46:30;;;;;;;3.67;1.90;;;;;;;;;;4971882;28;20121;-83
2021/04/17 12:48:56;;;;;;;5.90;1.80;;;;;;;;;;4972143;28;20066;-83
2021/04/17 12:51:22;;;;;;;3.58;1.85;;;;;;;;;;4971990;28;20085;-83
2021/04/17 12:53:49;;;;;;;5.53;2.13;;;;;;;;;;4955955;28;20051;-83
2021/04/17 12:56:15;;;;;;;3.30;1.80;;;;;;;;;;4971587;28;20505;-83
2021/04/17 12:58:41;;;;;;;3.63;2.17;;;;;;;;;;4972602;28;20502;-83
2021/04/17 13:01:07;;;;;;;5.07;2.00;;;;;;;;;;4974674;28;20047;-83
2021/04/17 13:03:33;;;;;;;5.25;2.33;;;;;;;;;;4975292;28;20565;-82
2021/04/17 13:05:59;;;;;;;7.35;2.30;;;;;;;;;;4975285;28;20035;-85
2021/04/17 13:08:27;;;;;;;5.20;1.88;;;;;;;;;;4976656;28;20039;-85
2021/04/17 13:10:54;;;;;;;5.35;1.90;;;;;;;;;;4959424;28;20540;-85
2021/04/17 13:13:20;;;;;;;4.95;2.03;;;;;;;;;;4975198;28;20042;-84
2021/04/17 13:15:46;;;;;;;5.65;1.77;;;;;;;;;;4969205;28;20506;-85
2021/04/17 13:18:13;;;;;;;5.40;2.08;;;;;;;;;;4957950;28;20050;-84
2021/04/17 13:20:39;;;;;;;4.47;1.67;;;;;;;;;;4958741;28;20067;-83
2021/04/17 13:23:05;;;;;;;3.55;1.73;;;;;;;;;;4975252;28;20069;-83
2021/04/17 13:25:31;;;;;;;4.05;1.80;;;;;;;;;;4975059;28;20047;-83
2021/04/17 13:27:57;;;;;;;4.97;1.90;;;;;;;;;;4975158;28;20502;-85
2021/04/17 13:30:23;;;;;;;4.75;1.95;;;;;;;;;;4974706;28;20062;-85
2021/04/17 13:32:50;;;;;;;4.18;2.03;;;;;;;;;;4974961;28;20047;-86
2021/04/17 13:35:16;;;;;;;5.07;1.70;;;;;;;;;;4974949;28;20073;-86
2021/04/17 13:37:42;;;;;;;2.65;1.70;;;;;;;;;;4974860;28;20066;-86
2021/04/17 13:40:08;;;;;;;4.30;1.80;;;;;;;;;;4974850;28;20045;-84
2021/04/17 13:42:34;;;;;;;5.00;2.35;;;;;;;;;;4974860;28;20541;-86
2021/04/17 13:45:00;;;;;;;4.65;1.83;;;;;;;;;;4958691;28;20118;-85
2021/04/17 13:47:26;;;;;;;3.80;1.75;;;;;;;;;;4974406;28;20066;-87
2021/04/17 13:49:52;;;;;;;3.72;1.52;;;;;;;;;;4958788;28;20066;-87
2021/04/17 13:52:18;;;;;;;4.80;1.60;;;;;;;;;;4974445;28;20527;-84
2021/04/17 13:54:45;;;;;;;7.53;1.60;;;;;;;;;;4958009;28;20054;-86
2021/04/17 13:57:11;;;;;;;3.85;1.90;;;;;;;;;;4957511;28;20054;-86
2021/04/17 13:59:37;;;;;;;5.18;1.90;;;;;;;;;;4957676;28;20070;-85
2021/04/17 14:02:03;;;;;;;3.10;1.63;;;;;;;;;;4957680;28;20038;-87
2021/04/17 14:04:29;;;;;;;4.45;1.85;;;;;;;;;;4974397;28;20125;-85
2021/04/17 14:06:55;;;;;;;4.88;1.67;;;;;;;;;;4958426;28;20077;-85
2021/04/17 14:09:21;;;;;;;2.78;1.73;;;;;;;;;;4958367;28;20454;-85
2021/04/17 14:11:47;;;;;;;4.22;1.38;;;;;;;;;;4974198;28;20039;-83
2021/04/17 14:14:13;;;;;;;4.03;1.70;;;;;;;;;;4973983;28;20081;-84
2021/04/17 14:16:39;;;;;;;3.83;1.48;;;;;;;;;;4957682;28;20047;-83
2021/04/17 14:19:05;;;;;;;4.10;1.67;;;;;;;;;;4974072;28;20109;-84
2021/04/17 14:21:31;;;;;;;3.00;1.63;;;;;;;;;;4973690;28;20031;-86
2021/04/17 14:23:58;;;;;;;3.65;1.42;;;;;;;;;;4938369;28;20051;-84
2021/04/17 14:26:24;;;;;;;4.10;1.80;;;;;;;;;;4940784;28;20046;-84
2021/04/17 14:28:50;;;;;;;3.20;1.40;;;;;;;;;;4957634;28;20087;-83
2021/04/17 14:31:16;;;;;;;4.32;1.45;;;;;;;;;;4975021;28;20043;-85
2021/04/17 14:33:42;;;;;;;4.25;1.40;;;;;;;;;;4957820;28;20042;-84
2021/04/17 14:36:08;;;;;;;4.38;1.27;;;;;;;;;;4957683;28;20130;-84
2021/04/17 14:38:34;;;;;;;2.83;1.30;;;;;;;;;;4973805;28;20070;-84
2021/04/17 14:41:00;;;;;;;5.03;1.50;;;;;;;;;;4941811;28;20047;-87
2021/04/17 14:43:27;;;;;;;4.25;1.55;;;;;;;;;;4973531;28;20111;-85